Keefeton, Oklahoma
Current Conditions -  °F | °C
As of 8:53 PM on Sunday 23 Nov 2014 (Local Time) from KMKO Reporting Station
Light Rain Light Rain  
Wind Chill: 38°   Ceiling: 2100
Heat Index: 46°   Visibility: 10mi
Dew Point: 42°   Wind: 22mph
Humidity: 86%   Direction: 310°NW
Pressure: 29.55"   Gusts: 30mph
Location:  35.6818°N, 95.3578°W
Report Text: KMKO 240253Z AUTO 31019G26KT 10SM -RA BKN021 OVC026 08/06 A2955 RMK AO2 PK WND 30033/0156 SLP005 P0001 60001 T00780056 53057
Loading
Personal Weather Stations






























Interactive Weather Map New forecast layout! Learn more

10-Day Weather Forecast

Advertisements
Track Severe Weather on mobile